LNR4172 KEWR-KDCA
Flight info
| Callsign | LNR4172 |
|---|---|
| Flight time | 0h 38m |
| Altitude | 22000 |
| Route | BIGGY Q75 MXE CLIPR3 |
| Aircraft | A320/M-SDE3FGHIRWY/LB1 |
Departure
| Time | 2026-04-24 15:15 |
|---|---|
| Airport | Newark Liberty International Airport (KEWR) |
Arrival
| Time | 2026-04-24 15:53 |
|---|---|
| Airport | Ronald Reagan Washington National Airport (KDCA) |
| Time | Latitude | Longitude | Altitude | Speed | Heading |
|---|---|---|---|---|---|
| 2026-04-24 15:15 | 40.61416 | -74.46582 | 18031 ft | 340 kts | 249° |
| 2026-04-24 15:15 | 40.60305 | -74.49330 | 18634 ft | 342 kts | 250° |
| 2026-04-24 15:15 | 40.59210 | -74.52123 | 19202 ft | 345 kts | 250° |
| 2026-04-24 15:16 | 40.58126 | -74.54950 | 19768 ft | 348 kts | 250° |
| 2026-04-24 15:16 | 40.57041 | -74.57819 | 20323 ft | 352 kts | 251° |
| 2026-04-24 15:16 | 40.55963 | -74.60680 | 20873 ft | 356 kts | 251° |
| 2026-04-24 15:16 | 40.54854 | -74.63609 | 21410 ft | 360 kts | 251° |
| 2026-04-24 15:17 | 40.53732 | -74.66569 | 21948 ft | 364 kts | 251° |
| 2026-04-24 15:17 | 40.52593 | -74.69565 | 22468 ft | 369 kts | 250° |
| 2026-04-24 15:17 | 40.51418 | -74.72641 | 23005 ft | 373 kts | 250° |
| 2026-04-24 15:17 | 40.50264 | -74.75661 | 23517 ft | 377 kts | 251° |
| 2026-04-24 15:18 | 40.49081 | -74.78753 | 23959 ft | 381 kts | 250° |
| 2026-04-24 15:18 | 40.47885 | -74.81873 | 24413 ft | 384 kts | 250° |
| 2026-04-24 15:18 | 40.46678 | -74.85011 | 24858 ft | 387 kts | 250° |
| 2026-04-24 15:18 | 40.45459 | -74.88175 | 25302 ft | 389 kts | 250° |
| 2026-04-24 15:19 | 40.44233 | -74.91353 | 25718 ft | 392 kts | 250° |
| 2026-04-24 15:19 | 40.42993 | -74.94565 | 26135 ft | 395 kts | 250° |
| 2026-04-24 15:19 | 40.41536 | -74.97677 | 26543 ft | 406 kts | 240° |
| 2026-04-24 15:19 | 40.39669 | -75.00519 | 26956 ft | 416 kts | 234° |
| 2026-04-24 15:20 | 40.37681 | -75.03301 | 27349 ft | 418 kts | 234° |
| 2026-04-24 15:20 | 40.35689 | -75.06088 | 27708 ft | 421 kts | 234° |
| 2026-04-24 15:20 | 40.33680 | -75.08898 | 28072 ft | 424 kts | 234° |
| 2026-04-24 15:20 | 40.31662 | -75.11732 | 28434 ft | 427 kts | 234° |
| 2026-04-24 15:21 | 40.29632 | -75.14583 | 28798 ft | 429 kts | 234° |
| 2026-04-24 15:21 | 40.27583 | -75.17454 | 29149 ft | 432 kts | 234° |
| 2026-04-24 15:21 | 40.25529 | -75.20330 | 29498 ft | 435 kts | 234° |
| 2026-04-24 15:21 | 40.23455 | -75.23231 | 29830 ft | 437 kts | 233° |
| 2026-04-24 15:22 | 40.19389 | -75.28881 | 29921 ft | 414 kts | 234° |
| 2026-04-24 15:23 | 40.13585 | -75.36927 | 29925 ft | 402 kts | 234° |
| 2026-04-24 15:23 | 40.07878 | -75.44871 | 29516 ft | 391 kts | 233° |
| 2026-04-24 15:24 | 40.02374 | -75.52502 | 28265 ft | 379 kts | 234° |
| 2026-04-24 15:25 | 39.99389 | -75.56622 | 27543 ft | 373 kts | 233° |
| 2026-04-24 15:25 | 39.95268 | -75.62294 | 26570 ft | 365 kts | 233° |
| 2026-04-24 15:26 | 39.90426 | -75.69708 | 25274 ft | 350 kts | 243° |
| 2026-04-24 15:27 | 39.86369 | -75.77543 | 23926 ft | 346 kts | 243° |
| 2026-04-24 15:27 | 39.82329 | -75.85267 | 22523 ft | 341 kts | 242° |
| 2026-04-24 15:28 | 39.77063 | -75.95306 | 20802 ft | 332 kts | 242° |
| 2026-04-24 15:29 | 39.74477 | -76.00234 | 19965 ft | 328 kts | 242° |
| 2026-04-24 15:30 | 39.70656 | -76.07512 | 18723 ft | 325 kts | 241° |
| 2026-04-24 15:31 | 39.65634 | -76.17059 | 17160 ft | 312 kts | 240° |
| 2026-04-24 15:32 | 39.60776 | -76.26249 | 15639 ft | 307 kts | 239° |
| 2026-04-24 15:33 | 39.54515 | -76.33762 | 14115 ft | 313 kts | 218° |
| 2026-04-24 15:33 | 39.49107 | -76.38455 | 12941 ft | 310 kts | 218° |
| 2026-04-24 15:34 | 39.45546 | -76.41545 | 12172 ft | 307 kts | 218° |
| 2026-04-24 15:35 | 39.40332 | -76.46064 | 11698 ft | 297 kts | 218° |
| 2026-04-24 15:35 | 39.36907 | -76.49036 | 11483 ft | 296 kts | 218° |
| 2026-04-24 15:35 | 39.35191 | -76.50522 | 11355 ft | 296 kts | 218° |
| 2026-04-24 15:36 | 39.33481 | -76.52003 | 11234 ft | 296 kts | 217° |
| 2026-04-24 15:36 | 39.30062 | -76.54953 | 10985 ft | 295 kts | 217° |
| 2026-04-24 15:36 | 39.28355 | -76.56425 | 10860 ft | 295 kts | 218° |
| 2026-04-24 15:37 | 39.26657 | -76.57893 | 10713 ft | 294 kts | 218° |
| 2026-04-24 15:37 | 39.24959 | -76.59360 | 10586 ft | 294 kts | 217° |
| 2026-04-24 15:37 | 39.23266 | -76.60821 | 10471 ft | 293 kts | 217° |
| 2026-04-24 15:37 | 39.21574 | -76.62278 | 10350 ft | 292 kts | 217° |
| 2026-04-24 15:38 | 39.19888 | -76.63730 | 10220 ft | 291 kts | 218° |
| 2026-04-24 15:38 | 39.18202 | -76.65181 | 10108 ft | 291 kts | 218° |
| 2026-04-24 15:38 | 39.16590 | -76.66730 | 9987 ft | 287 kts | 226° |
| 2026-04-24 15:38 | 39.15130 | -76.68472 | 9841 ft | 286 kts | 227° |
| 2026-04-24 15:39 | 39.13670 | -76.70209 | 9703 ft | 286 kts | 226° |
| 2026-04-24 15:39 | 39.12208 | -76.71944 | 9554 ft | 286 kts | 227° |
| 2026-04-24 15:39 | 39.10746 | -76.73676 | 9420 ft | 285 kts | 226° |
| 2026-04-24 15:39 | 39.09281 | -76.75407 | 9280 ft | 285 kts | 227° |
| 2026-04-24 15:40 | 39.07821 | -76.77133 | 9145 ft | 285 kts | 227° |
| 2026-04-24 15:40 | 39.06385 | -76.78833 | 9010 ft | 285 kts | 227° |
| 2026-04-24 15:40 | 39.04907 | -76.80577 | 8858 ft | 284 kts | 227° |
| 2026-04-24 15:40 | 39.03447 | -76.82243 | 8723 ft | 286 kts | 220° |
| 2026-04-24 15:41 | 39.01630 | -76.83410 | 8607 ft | 291 kts | 205° |
| 2026-04-24 15:41 | 38.99730 | -76.84315 | 8470 ft | 291 kts | 204° |
| 2026-04-24 15:41 | 38.97826 | -76.85204 | 8347 ft | 291 kts | 204° |
| 2026-04-24 15:41 | 38.95924 | -76.86088 | 8221 ft | 291 kts | 204° |
| 2026-04-24 15:42 | 38.94022 | -76.86972 | 8090 ft | 291 kts | 204° |
| 2026-04-24 15:42 | 38.92141 | -76.87849 | 7985 ft | 292 kts | 204° |
| 2026-04-24 15:42 | 38.90233 | -76.88738 | 7861 ft | 291 kts | 204° |
| 2026-04-24 15:42 | 38.88302 | -76.89642 | 7732 ft | 291 kts | 204° |
| 2026-04-24 15:43 | 38.86427 | -76.90519 | 7593 ft | 292 kts | 204° |
| 2026-04-24 15:43 | 38.84521 | -76.91408 | 7469 ft | 291 kts | 204° |
| 2026-04-24 15:43 | 38.82616 | -76.92294 | 7343 ft | 292 kts | 204° |
| 2026-04-24 15:43 | 38.80708 | -76.93181 | 7219 ft | 292 kts | 204° |
| 2026-04-24 15:44 | 38.78778 | -76.93997 | 7096 ft | 294 kts | 196° |
| 2026-04-24 15:44 | 38.76741 | -76.94318 | 6973 ft | 297 kts | 182° |
| 2026-04-24 15:44 | 38.74675 | -76.94152 | 6853 ft | 298 kts | 177° |
| 2026-04-24 15:44 | 38.72605 | -76.93942 | 6730 ft | 298 kts | 178° |
| 2026-04-24 15:45 | 38.70537 | -76.93737 | 6615 ft | 298 kts | 178° |
| 2026-04-24 15:45 | 38.68470 | -76.93536 | 6494 ft | 298 kts | 178° |
| 2026-04-24 15:45 | 38.66406 | -76.93344 | 6382 ft | 297 kts | 178° |
| 2026-04-24 15:45 | 38.64344 | -76.93164 | 6213 ft | 295 kts | 180° |
| 2026-04-24 15:46 | 38.62364 | -76.93559 | 5453 ft | 286 kts | 208° |
| 2026-04-24 15:46 | 38.60820 | -76.95048 | 4711 ft | 275 kts | 236° |
| 2026-04-24 15:46 | 38.59977 | -76.97157 | 3989 ft | 262 kts | 261° |
| 2026-04-24 15:46 | 38.59901 | -76.99381 | 3617 ft | 240 kts | 284° |
| 2026-04-24 15:47 | 38.60418 | -77.01264 | 3517 ft | 212 kts | 303° |
| 2026-04-24 15:47 | 38.61317 | -77.02667 | 3467 ft | 203 kts | 321° |
| 2026-04-24 15:47 | 38.62513 | -77.03599 | 3420 ft | 198 kts | 339° |
| 2026-04-24 15:47 | 38.63778 | -77.03957 | 3403 ft | 175 kts | 355° |
| 2026-04-24 15:48 | 38.64901 | -77.03850 | 3359 ft | 151 kts | 9° |
| 2026-04-24 15:48 | 38.65840 | -77.03445 | 3332 ft | 141 kts | 21° |
| 2026-04-24 15:48 | 38.66710 | -77.02922 | 3295 ft | 136 kts | 19° |
| 2026-04-24 15:48 | 38.67572 | -77.02419 | 3233 ft | 135 kts | 15° |
| 2026-04-24 15:49 | 38.68477 | -77.02153 | 3198 ft | 133 kts | 1° |
| 2026-04-24 15:49 | 38.69408 | -77.02197 | 2989 ft | 135 kts | 352° |
| 2026-04-24 15:49 | 38.70340 | -77.02288 | 2724 ft | 134 kts | 353° |
| 2026-04-24 15:49 | 38.71272 | -77.02380 | 2512 ft | 135 kts | 353° |
| 2026-04-24 15:50 | 38.72208 | -77.02473 | 2326 ft | 135 kts | 352° |
| 2026-04-24 15:50 | 38.73141 | -77.02567 | 2168 ft | 134 kts | 352° |
| 2026-04-24 15:50 | 38.74051 | -77.02658 | 1991 ft | 133 kts | 351° |
| 2026-04-24 15:50 | 38.74989 | -77.02752 | 1812 ft | 133 kts | 353° |
| 2026-04-24 15:51 | 38.75899 | -77.02843 | 1646 ft | 132 kts | 353° |
| 2026-04-24 15:51 | 38.76816 | -77.02936 | 1460 ft | 133 kts | 353° |
| 2026-04-24 15:51 | 38.77735 | -77.03028 | 1291 ft | 132 kts | 353° |
| 2026-04-24 15:51 | 38.78656 | -77.03121 | 1122 ft | 132 kts | 353° |
| 2026-04-24 15:52 | 38.79278 | -77.03184 | 1002 ft | 133 kts | 353° |
| 2026-04-24 15:52 | 38.80491 | -77.03305 | 774 ft | 132 kts | 354° |
| 2026-04-24 15:52 | 38.81407 | -77.03397 | 603 ft | 133 kts | 355° |
| 2026-04-24 15:52 | 38.82335 | -77.03491 | 420 ft | 134 kts | 357° |
| 2026-04-24 15:53 | 38.83266 | -77.03584 | 238 ft | 134 kts | 0° |
| 2026-04-24 15:53 | 38.84193 | -77.03688 | 60 ft | 134 kts | 0° |
| 2026-04-24 15:53 | 38.85047 | -77.03760 | 26 ft | 99 kts | 357° |
| 2026-04-24 15:53 | 38.85435 | -77.03800 | 25 ft | 28 kts | 354° |
| 2026-04-24 15:54 | 38.85503 | -77.03929 | 25 ft | 15 kts | 238° |
| 2026-04-24 15:54 | 38.85463 | -77.03946 | 24 ft | 8 kts | 180° |
| 2026-04-24 15:54 | 38.85398 | -77.03943 | 24 ft | 15 kts | 175° |
| 2026-04-24 15:54 | 38.85346 | -77.03983 | 25 ft | 7 kts | 257° |
| 2026-04-24 15:55 | 38.85333 | -77.04037 | 24 ft | 6 kts | 249° |
| 2026-04-24 15:55 | 38.85336 | -77.04075 | 24 ft | 3 kts | 311° |
| 2026-04-24 15:55 | 38.85352 | -77.04094 | 25 ft | 3 kts | 322° |
| 2026-04-24 15:55 | 38.85366 | -77.04106 | 24 ft | 2 kts | 326° |
| 2026-04-24 15:56 | 38.85371 | -77.04110 | 24 ft | 0 kts | 326° |